sensor_id;sensor_type;location;lat;lon;timestamp;P1;durP1;ratioP1;P2;durP2;ratioP2
20842;SDS011;26719;51.440;-2.574;2023-02-15T00:01:41;0.20;;;0.20;;
20842;SDS011;26719;51.440;-2.574;2023-02-15T00:04:08;0.30;;;0.30;;
20842;SDS011;26719;51.440;-2.574;2023-02-15T00:06:34;0.40;;;0.40;;
20842;SDS011;26719;51.440;-2.574;2023-02-15T00:09:00;0.20;;;0.20;;
20842;SDS011;26719;51.440;-2.574;2023-02-15T00:11:26;0.30;;;0.30;;
20842;SDS011;26719;51.440;-2.574;2023-02-15T00:14:09;0.30;;;0.30;;
20842;SDS011;26719;51.440;-2.574;2023-02-15T00:16:35;0.20;;;0.20;;
20842;SDS011;26719;51.440;-2.574;2023-02-15T00:19:02;0.30;;;0.30;;
20842;SDS011;26719;51.440;-2.574;2023-02-15T00:21:28;0.20;;;0.20;;
20842;SDS011;26719;51.440;-2.574;2023-02-15T00:23:55;0.20;;;0.20;;
20842;SDS011;26719;51.440;-2.574;2023-02-15T00:26:21;0.30;;;0.30;;
20842;SDS011;26719;51.440;-2.574;2023-02-15T00:28:47;0.10;;;0.10;;
20842;SDS011;26719;51.440;-2.574;2023-02-15T00:31:13;0.20;;;0.20;;
20842;SDS011;26719;51.440;-2.574;2023-02-15T00:33:39;0.30;;;0.30;;
20842;SDS011;26719;51.440;-2.574;2023-02-15T00:36:06;0.20;;;0.20;;
20842;SDS011;26719;51.440;-2.574;2023-02-15T00:38:33;0.17;;;0.17;;
20842;SDS011;26719;51.440;-2.574;2023-02-15T00:41:00;0.30;;;0.30;;
20842;SDS011;26719;51.440;-2.574;2023-02-15T00:43:27;0.20;;;0.20;;
20842;SDS011;26719;51.440;-2.574;2023-02-15T00:45:53;0.30;;;0.30;;
20842;SDS011;26719;51.440;-2.574;2023-02-15T00:48:19;0.40;;;0.40;;
20842;SDS011;26719;51.440;-2.574;2023-02-15T00:50:46;0.20;;;0.20;;
20842;SDS011;26719;51.440;-2.574;2023-02-15T00:53:12;0.20;;;0.20;;
20842;SDS011;26719;51.440;-2.574;2023-02-15T00:55:38;0.20;;;0.20;;
20842;SDS011;26719;51.440;-2.574;2023-02-15T00:58:05;0.20;;;0.20;;
20842;SDS011;26719;51.440;-2.574;2023-02-15T01:00:31;0.30;;;0.30;;
20842;SDS011;26719;51.440;-2.574;2023-02-15T01:02:58;0.30;;;0.30;;
20842;SDS011;26719;51.440;-2.574;2023-02-15T01:05:24;0.30;;;0.30;;
20842;SDS011;26719;51.440;-2.574;2023-02-15T01:07:50;0.20;;;0.20;;
20842;SDS011;26719;51.440;-2.574;2023-02-15T01:10:16;0.10;;;0.10;;
20842;SDS011;26719;51.440;-2.574;2023-02-15T01:12:42;0.20;;;0.20;;
20842;SDS011;26719;51.440;-2.574;2023-02-15T01:15:08;0.20;;;0.20;;
20842;SDS011;26719;51.440;-2.574;2023-02-15T01:17:34;0.10;;;0.10;;
20842;SDS011;26719;51.440;-2.574;2023-02-15T01:20:00;0.20;;;0.20;;
20842;SDS011;26719;51.440;-2.574;2023-02-15T01:22:26;0.20;;;0.20;;
20842;SDS011;26719;51.440;-2.574;2023-02-15T01:24:52;0.30;;;0.30;;
20842;SDS011;26719;51.440;-2.574;2023-02-15T01:27:18;0.20;;;0.20;;
20842;SDS011;26719;51.440;-2.574;2023-02-15T01:29:44;0.20;;;0.20;;
20842;SDS011;26719;51.440;-2.574;2023-02-15T01:32:12;0.20;;;0.20;;
20842;SDS011;26719;51.440;-2.574;2023-02-15T01:34:38;0.20;;;0.20;;
20842;SDS011;26719;51.440;-2.574;2023-02-15T01:37:04;0.20;;;0.20;;
20842;SDS011;26719;51.440;-2.574;2023-02-15T01:39:30;0.10;;;0.10;;
20842;SDS011;26719;51.440;-2.574;2023-02-15T01:41:56;0.30;;;0.30;;
20842;SDS011;26719;51.440;-2.574;2023-02-15T01:47:07;0.30;;;0.30;;
20842;SDS011;26719;51.440;-2.574;2023-02-15T01:49:33;0.20;;;0.20;;
20842;SDS011;26719;51.440;-2.574;2023-02-15T01:52:00;0.20;;;0.20;;
20842;SDS011;26719;51.440;-2.574;2023-02-15T01:54:29;0.20;;;0.20;;
20842;SDS011;26719;51.440;-2.574;2023-02-15T01:56:58;0.20;;;0.20;;
20842;SDS011;26719;51.440;-2.574;2023-02-15T01:59:26;0.20;;;0.20;;
20842;SDS011;26719;51.440;-2.574;2023-02-15T02:01:52;0.17;;;0.17;;
20842;SDS011;26719;51.440;-2.574;2023-02-15T02:04:24;0.30;;;0.30;;
20842;SDS011;26719;51.440;-2.574;2023-02-15T02:06:55;0.20;;;0.20;;
20842;SDS011;26719;51.440;-2.574;2023-02-15T02:09:23;0.20;;;0.20;;
20842;SDS011;26719;51.440;-2.574;2023-02-15T02:11:49;0.20;;;0.20;;
20842;SDS011;26719;51.440;-2.574;2023-02-15T02:14:16;0.20;;;0.20;;
20842;SDS011;26719;51.440;-2.574;2023-02-15T02:30:00;0.30;;;0.30;;
20842;SDS011;26719;51.440;-2.574;2023-02-15T02:35:16;0.30;;;0.30;;
20842;SDS011;26719;51.440;-2.574;2023-02-15T02:40:22;0.30;;;0.30;;
20842;SDS011;26719;51.440;-2.574;2023-02-15T02:43:02;0.20;;;0.20;;
20842;SDS011;26719;51.440;-2.574;2023-02-15T02:45:39;0.20;;;0.20;;
20842;SDS011;26719;51.440;-2.574;2023-02-15T02:48:08;0.30;;;0.30;;
20842;SDS011;26719;51.440;-2.574;2023-02-15T02:50:35;0.20;;;0.20;;
20842;SDS011;26719;51.440;-2.574;2023-02-15T02:53:04;0.30;;;0.30;;
20842;SDS011;26719;51.440;-2.574;2023-02-15T03:00:35;0.20;;;0.20;;
20842;SDS011;26719;51.440;-2.574;2023-02-15T03:03:06;0.20;;;0.20;;
20842;SDS011;26719;51.440;-2.574;2023-02-15T03:05:33;0.30;;;0.30;;
20842;SDS011;26719;51.440;-2.574;2023-02-15T03:08:01;0.30;;;0.30;;
20842;SDS011;26719;51.440;-2.574;2023-02-15T03:10:31;0.30;;;0.30;;
20842;SDS011;26719;51.440;-2.574;2023-02-15T03:12:58;0.20;;;0.20;;
20842;SDS011;26719;51.440;-2.574;2023-02-15T03:15:26;0.30;;;0.30;;
20842;SDS011;26719;51.440;-2.574;2023-02-15T03:18:14;0.20;;;0.20;;
20842;SDS011;26719;51.440;-2.574;2023-02-15T03:20:42;0.30;;;0.30;;
20842;SDS011;26719;51.440;-2.574;2023-02-15T03:23:11;0.30;;;0.30;;
20842;SDS011;26719;51.440;-2.574;2023-02-15T03:25:40;0.20;;;0.20;;
20842;SDS011;26719;51.440;-2.574;2023-02-15T03:28:07;0.20;;;0.20;;
20842;SDS011;26719;51.440;-2.574;2023-02-15T03:30:35;0.30;;;0.30;;
20842;SDS011;26719;51.440;-2.574;2023-02-15T03:33:01;0.20;;;0.20;;
20842;SDS011;26719;51.440;-2.574;2023-02-15T03:35:33;0.23;;;0.23;;
20842;SDS011;26719;51.440;-2.574;2023-02-15T03:38:02;0.20;;;0.20;;
20842;SDS011;26719;51.440;-2.574;2023-02-15T03:40:30;0.30;;;0.30;;
20842;SDS011;26719;51.440;-2.574;2023-02-15T03:45:42;0.30;;;0.30;;
20842;SDS011;26719;51.440;-2.574;2023-02-15T03:48:29;0.30;;;0.30;;
20842;SDS011;26719;51.440;-2.574;2023-02-15T03:50:57;0.20;;;0.20;;
20842;SDS011;26719;51.440;-2.574;2023-02-15T03:53:43;0.20;;;0.20;;
20842;SDS011;26719;51.440;-2.574;2023-02-15T03:56:10;0.20;;;0.20;;
20842;SDS011;26719;51.440;-2.574;2023-02-15T03:58:36;0.20;;;0.20;;
20842;SDS011;26719;51.440;-2.574;2023-02-15T04:01:27;0.20;;;0.20;;
20842;SDS011;26719;51.440;-2.574;2023-02-15T04:04:19;0.20;;;0.20;;
20842;SDS011;26719;51.440;-2.574;2023-02-15T04:06:46;0.10;;;0.10;;
20842;SDS011;26719;51.440;-2.574;2023-02-15T04:09:13;0.20;;;0.20;;
20842;SDS011;26719;51.440;-2.574;2023-02-15T04:11:58;0.20;;;0.20;;
20842;SDS011;26719;51.440;-2.574;2023-02-15T04:14:24;0.20;;;0.20;;
20842;SDS011;26719;51.440;-2.574;2023-02-15T04:17:08;0.30;;;0.30;;
20842;SDS011;26719;51.440;-2.574;2023-02-15T04:19:34;0.20;;;0.20;;
20842;SDS011;26719;51.440;-2.574;2023-02-15T04:22:19;0.20;;;0.20;;
20842;SDS011;26719;51.440;-2.574;2023-02-15T04:25:04;0.30;;;0.30;;
20842;SDS011;26719;51.440;-2.574;2023-02-15T04:27:49;0.27;;;0.27;;
20842;SDS011;26719;51.440;-2.574;2023-02-15T04:30:16;0.23;;;0.23;;
20842;SDS011;26719;51.440;-2.574;2023-02-15T04:32:43;0.20;;;0.20;;
20842;SDS011;26719;51.440;-2.574;2023-02-15T04:35:09;0.20;;;0.20;;
20842;SDS011;26719;51.440;-2.574;2023-02-15T04:37:36;0.20;;;0.20;;
20842;SDS011;26719;51.440;-2.574;2023-02-15T04:40:02;0.20;;;0.20;;
20842;SDS011;26719;51.440;-2.574;2023-02-15T04:42:29;0.30;;;0.30;;
20842;SDS011;26719;51.440;-2.574;2023-02-15T04:44:56;0.20;;;0.20;;
20842;SDS011;26719;51.440;-2.574;2023-02-15T04:47:22;0.20;;;0.20;;
20842;SDS011;26719;51.440;-2.574;2023-02-15T04:49:48;0.20;;;0.20;;
20842;SDS011;26719;51.440;-2.574;2023-02-15T04:52:14;0.20;;;0.20;;
20842;SDS011;26719;51.440;-2.574;2023-02-15T04:54:42;0.30;;;0.30;;
20842;SDS011;26719;51.440;-2.574;2023-02-15T04:57:08;0.20;;;0.20;;
20842;SDS011;26719;51.440;-2.574;2023-02-15T04:59:34;0.20;;;0.20;;
20842;SDS011;26719;51.440;-2.574;2023-02-15T05:02:00;0.20;;;0.20;;
20842;SDS011;26719;51.440;-2.574;2023-02-15T05:04:26;0.30;;;0.30;;
20842;SDS011;26719;51.440;-2.574;2023-02-15T05:06:52;0.20;;;0.20;;
20842;SDS011;26719;51.440;-2.574;2023-02-15T05:09:18;0.10;;;0.10;;
20842;SDS011;26719;51.440;-2.574;2023-02-15T05:11:44;0.30;;;0.30;;
20842;SDS011;26719;51.440;-2.574;2023-02-15T05:14:10;0.30;;;0.30;;
20842;SDS011;26719;51.440;-2.574;2023-02-15T05:16:36;0.17;;;0.17;;
20842;SDS011;26719;51.440;-2.574;2023-02-15T05:19:03;0.20;;;0.20;;
20842;SDS011;26719;51.440;-2.574;2023-02-15T05:21:29;0.13;;;0.13;;
20842;SDS011;26719;51.440;-2.574;2023-02-15T05:23:55;0.20;;;0.20;;
20842;SDS011;26719;51.440;-2.574;2023-02-15T05:26:22;0.30;;;0.30;;
20842;SDS011;26719;51.440;-2.574;2023-02-15T05:29:07;0.27;;;0.27;;
20842;SDS011;26719;51.440;-2.574;2023-02-15T05:31:33;0.20;;;0.20;;
20842;SDS011;26719;51.440;-2.574;2023-02-15T05:33:59;0.23;;;0.23;;
20842;SDS011;26719;51.440;-2.574;2023-02-15T05:36:25;0.30;;;0.30;;
20842;SDS011;26719;51.440;-2.574;2023-02-15T05:38:52;0.27;;;0.27;;
20842;SDS011;26719;51.440;-2.574;2023-02-15T05:41:18;0.30;;;0.30;;
20842;SDS011;26719;51.440;-2.574;2023-02-15T05:43:44;0.20;;;0.20;;
20842;SDS011;26719;51.440;-2.574;2023-02-15T05:46:10;0.20;;;0.20;;
20842;SDS011;26719;51.440;-2.574;2023-02-15T05:48:36;0.20;;;0.20;;
20842;SDS011;26719;51.440;-2.574;2023-02-15T05:51:12;0.20;;;0.20;;
20842;SDS011;26719;51.440;-2.574;2023-02-15T05:53:39;0.30;;;0.30;;
20842;SDS011;26719;51.440;-2.574;2023-02-15T05:56:06;0.20;;;0.20;;
20842;SDS011;26719;51.440;-2.574;2023-02-15T05:58:33;0.30;;;0.30;;
20842;SDS011;26719;51.440;-2.574;2023-02-15T06:01:06;0.30;;;0.30;;
20842;SDS011;26719;51.440;-2.574;2023-02-15T06:03:33;0.20;;;0.20;;
20842;SDS011;26719;51.440;-2.574;2023-02-15T06:05:59;0.17;;;0.17;;
20842;SDS011;26719;51.440;-2.574;2023-02-15T06:08:25;0.30;;;0.30;;
20842;SDS011;26719;51.440;-2.574;2023-02-15T06:10:51;0.27;;;0.27;;
20842;SDS011;26719;51.440;-2.574;2023-02-15T06:13:17;0.20;;;0.20;;
20842;SDS011;26719;51.440;-2.574;2023-02-15T06:15:43;0.20;;;0.20;;
20842;SDS011;26719;51.440;-2.574;2023-02-15T06:18:09;0.20;;;0.20;;
20842;SDS011;26719;51.440;-2.574;2023-02-15T06:20:35;0.20;;;0.20;;
20842;SDS011;26719;51.440;-2.574;2023-02-15T06:23:01;0.23;;;0.23;;
20842;SDS011;26719;51.440;-2.574;2023-02-15T06:25:27;0.30;;;0.30;;
20842;SDS011;26719;51.440;-2.574;2023-02-15T06:27:53;0.20;;;0.20;;
20842;SDS011;26719;51.440;-2.574;2023-02-15T06:30:20;0.30;;;0.30;;
20842;SDS011;26719;51.440;-2.574;2023-02-15T06:32:46;0.30;;;0.30;;
20842;SDS011;26719;51.440;-2.574;2023-02-15T06:35:12;0.20;;;0.20;;
20842;SDS011;26719;51.440;-2.574;2023-02-15T06:37:38;0.30;;;0.30;;
20842;SDS011;26719;51.440;-2.574;2023-02-15T06:40:04;0.30;;;0.30;;
20842;SDS011;26719;51.440;-2.574;2023-02-15T06:42:30;0.30;;;0.30;;
20842;SDS011;26719;51.440;-2.574;2023-02-15T06:44:56;0.30;;;0.30;;
20842;SDS011;26719;51.440;-2.574;2023-02-15T06:47:24;0.20;;;0.20;;
20842;SDS011;26719;51.440;-2.574;2023-02-15T06:49:50;0.30;;;0.30;;
20842;SDS011;26719;51.440;-2.574;2023-02-15T06:52:16;0.30;;;0.30;;
20842;SDS011;26719;51.440;-2.574;2023-02-15T06:54:42;0.30;;;0.30;;
20842;SDS011;26719;51.440;-2.574;2023-02-15T06:57:08;0.20;;;0.20;;
20842;SDS011;26719;51.440;-2.574;2023-02-15T06:59:34;0.20;;;0.20;;
20842;SDS011;26719;51.440;-2.574;2023-02-15T07:02:00;0.20;;;0.20;;
20842;SDS011;26719;51.440;-2.574;2023-02-15T07:04:26;0.30;;;0.30;;
20842;SDS011;26719;51.440;-2.574;2023-02-15T07:06:54;0.27;;;0.27;;
20842;SDS011;26719;51.440;-2.574;2023-02-15T07:09:20;0.10;;;0.10;;
20842;SDS011;26719;51.440;-2.574;2023-02-15T07:11:47;0.20;;;0.20;;
20842;SDS011;26719;51.440;-2.574;2023-02-15T07:14:31;0.20;;;0.20;;
20842;SDS011;26719;51.440;-2.574;2023-02-15T07:16:57;0.20;;;0.20;;
20842;SDS011;26719;51.440;-2.574;2023-02-15T07:19:24;0.10;;;0.10;;
20842;SDS011;26719;51.440;-2.574;2023-02-15T07:21:50;0.20;;;0.20;;
20842;SDS011;26719;51.440;-2.574;2023-02-15T07:24:16;0.20;;;0.20;;
20842;SDS011;26719;51.440;-2.574;2023-02-15T07:26:42;0.20;;;0.20;;
20842;SDS011;26719;51.440;-2.574;2023-02-15T07:29:08;0.10;;;0.10;;
20842;SDS011;26719;51.440;-2.574;2023-02-15T07:31:34;0.20;;;0.20;;
20842;SDS011;26719;51.440;-2.574;2023-02-15T07:34:01;0.20;;;0.20;;
20842;SDS011;26719;51.440;-2.574;2023-02-15T07:36:27;0.10;;;0.10;;
20842;SDS011;26719;51.440;-2.574;2023-02-15T07:38:52;0.10;;;0.10;;
20842;SDS011;26719;51.440;-2.574;2023-02-15T07:41:19;0.20;;;0.20;;
20842;SDS011;26719;51.440;-2.574;2023-02-15T07:43:45;0.20;;;0.20;;
20842;SDS011;26719;51.440;-2.574;2023-02-15T07:46:12;0.10;;;0.10;;
20842;SDS011;26719;51.440;-2.574;2023-02-15T07:48:39;0.20;;;0.20;;
20842;SDS011;26719;51.440;-2.574;2023-02-15T07:51:06;0.20;;;0.20;;
20842;SDS011;26719;51.440;-2.574;2023-02-15T07:53:32;0.30;;;0.30;;
20842;SDS011;26719;51.440;-2.574;2023-02-15T07:56:02;0.20;;;0.20;;
20842;SDS011;26719;51.440;-2.574;2023-02-15T07:58:29;0.20;;;0.20;;
20842;SDS011;26719;51.440;-2.574;2023-02-15T08:01:14;0.20;;;0.20;;
20842;SDS011;26719;51.440;-2.574;2023-02-15T08:03:40;0.20;;;0.20;;
20842;SDS011;26719;51.440;-2.574;2023-02-15T08:06:06;0.13;;;0.13;;
20842;SDS011;26719;51.440;-2.574;2023-02-15T08:08:33;0.20;;;0.20;;
20842;SDS011;26719;51.440;-2.574;2023-02-15T08:13:49;0.10;;;0.10;;
20842;SDS011;26719;51.440;-2.574;2023-02-15T08:16:22;0.20;;;0.20;;
20842;SDS011;26719;51.440;-2.574;2023-02-15T08:18:48;0.20;;;0.20;;
20842;SDS011;26719;51.440;-2.574;2023-02-15T08:21:14;0.10;;;0.10;;
20842;SDS011;26719;51.440;-2.574;2023-02-15T08:23:40;0.10;;;0.10;;
20842;SDS011;26719;51.440;-2.574;2023-02-15T08:26:06;0.00;;;0.00;;
20842;SDS011;26719;51.440;-2.574;2023-02-15T08:28:32;0.10;;;0.10;;
20842;SDS011;26719;51.440;-2.574;2023-02-15T08:31:08;0.10;;;0.10;;
20842;SDS011;26719;51.440;-2.574;2023-02-15T08:33:35;0.10;;;0.10;;
20842;SDS011;26719;51.440;-2.574;2023-02-15T08:36:02;0.20;;;0.20;;
20842;SDS011;26719;51.440;-2.574;2023-02-15T08:38:28;0.10;;;0.10;;
20842;SDS011;26719;51.440;-2.574;2023-02-15T08:40:54;0.10;;;0.10;;
20842;SDS011;26719;51.440;-2.574;2023-02-15T08:43:20;0.10;;;0.10;;
20842;SDS011;26719;51.440;-2.574;2023-02-15T08:45:47;0.10;;;0.10;;
20842;SDS011;26719;51.440;-2.574;2023-02-15T08:48:13;0.10;;;0.10;;
20842;SDS011;26719;51.440;-2.574;2023-02-15T08:50:39;0.10;;;0.10;;
20842;SDS011;26719;51.440;-2.574;2023-02-15T08:53:05;0.10;;;0.10;;
20842;SDS011;26719;51.440;-2.574;2023-02-15T08:55:31;0.10;;;0.10;;
20842;SDS011;26719;51.440;-2.574;2023-02-15T08:57:58;0.20;;;0.20;;
20842;SDS011;26719;51.440;-2.574;2023-02-15T09:00:24;0.10;;;0.10;;
20842;SDS011;26719;51.440;-2.574;2023-02-15T09:02:50;0.10;;;0.10;;
20842;SDS011;26719;51.440;-2.574;2023-02-15T09:05:17;0.10;;;0.10;;
20842;SDS011;26719;51.440;-2.574;2023-02-15T09:07:43;0.13;;;0.13;;
20842;SDS011;26719;51.440;-2.574;2023-02-15T09:10:09;0.20;;;0.20;;
20842;SDS011;26719;51.440;-2.574;2023-02-15T09:12:35;0.20;;;0.20;;
20842;SDS011;26719;51.440;-2.574;2023-02-15T09:15:01;0.10;;;0.10;;
20842;SDS011;26719;51.440;-2.574;2023-02-15T09:17:27;0.10;;;0.10;;
20842;SDS011;26719;51.440;-2.574;2023-02-15T09:19:53;0.10;;;0.10;;
20842;SDS011;26719;51.440;-2.574;2023-02-15T09:22:19;0.10;;;0.10;;
20842;SDS011;26719;51.440;-2.574;2023-02-15T09:24:45;0.13;;;0.13;;
20842;SDS011;26719;51.440;-2.574;2023-02-15T09:27:11;0.10;;;0.10;;
20842;SDS011;26719;51.440;-2.574;2023-02-15T09:29:37;0.10;;;0.10;;
20842;SDS011;26719;51.440;-2.574;2023-02-15T09:32:04;0.00;;;0.00;;
20842;SDS011;26719;51.440;-2.574;2023-02-15T09:34:30;0.10;;;0.10;;
20842;SDS011;26719;51.440;-2.574;2023-02-15T09:36:56;0.10;;;0.10;;
20842;SDS011;26719;51.440;-2.574;2023-02-15T09:39:23;0.10;;;0.10;;
20842;SDS011;26719;51.440;-2.574;2023-02-15T09:52:33;0.10;;;0.10;;
20842;SDS011;26719;51.440;-2.574;2023-02-15T09:57:32;0.10;;;0.10;;
20842;SDS011;26719;51.440;-2.574;2023-02-15T10:02:42;0.00;;;0.00;;
20842;SDS011;26719;51.440;-2.574;2023-02-15T10:05:36;0.10;;;0.10;;
20842;SDS011;26719;51.440;-2.574;2023-02-15T10:28:33;0.10;;;0.10;;
20842;SDS011;26719;51.440;-2.574;2023-02-15T10:33:50;0.10;;;0.10;;
20842;SDS011;26719;51.440;-2.574;2023-02-15T10:47:09;0.00;;;0.00;;
20842;SDS011;26719;51.440;-2.574;2023-02-15T10:57:32;0.10;;;0.10;;
20842;SDS011;26719;51.440;-2.574;2023-02-15T11:00:43;0.00;;;0.00;;
20842;SDS011;26719;51.440;-2.574;2023-02-15T11:08:06;0.00;;;0.00;;
20842;SDS011;26719;51.440;-2.574;2023-02-15T11:10:43;0.03;;;0.03;;
20842;SDS011;26719;51.440;-2.574;2023-02-15T11:13:15;0.00;;;0.00;;
20842;SDS011;26719;51.440;-2.574;2023-02-15T11:15:52;0.10;;;0.10;;
20842;SDS011;26719;51.440;-2.574;2023-02-15T11:23:30;0.00;;;0.00;;
20842;SDS011;26719;51.440;-2.574;2023-02-15T11:26:02;0.10;;;0.10;;
20842;SDS011;26719;51.440;-2.574;2023-02-15T11:28:39;0.00;;;0.00;;
20842;SDS011;26719;51.440;-2.574;2023-02-15T11:31:26;0.10;;;0.10;;
20842;SDS011;26719;51.440;-2.574;2023-02-15T11:33:58;0.03;;;0.03;;
20842;SDS011;26719;51.440;-2.574;2023-02-15T11:36:25;0.00;;;0.00;;
20842;SDS011;26719;51.440;-2.574;2023-02-15T11:39:01;0.00;;;0.00;;
20842;SDS011;26719;51.440;-2.574;2023-02-15T11:41:29;0.10;;;0.10;;
20842;SDS011;26719;51.440;-2.574;2023-02-15T11:46:26;0.10;;;0.10;;
20842;SDS011;26719;51.440;-2.574;2023-02-15T11:48:52;0.10;;;0.10;;
20842;SDS011;26719;51.440;-2.574;2023-02-15T11:51:19;0.10;;;0.10;;
20842;SDS011;26719;51.440;-2.574;2023-02-15T11:53:46;0.17;;;0.17;;
20842;SDS011;26719;51.440;-2.574;2023-02-15T11:56:16;0.10;;;0.10;;
20842;SDS011;26719;51.440;-2.574;2023-02-15T11:58:44;0.10;;;0.10;;
20842;SDS011;26719;51.440;-2.574;2023-02-15T12:01:14;0.10;;;0.10;;
20842;SDS011;26719;51.440;-2.574;2023-02-15T12:06:16;0.10;;;0.10;;
20842;SDS011;26719;51.440;-2.574;2023-02-15T12:08:45;0.10;;;0.10;;
20842;SDS011;26719;51.440;-2.574;2023-02-15T12:11:18;0.10;;;0.10;;
20842;SDS011;26719;51.440;-2.574;2023-02-15T12:14:05;0.10;;;0.10;;
20842;SDS011;26719;51.440;-2.574;2023-02-15T12:16:33;0.17;;;0.17;;
20842;SDS011;26719;51.440;-2.574;2023-02-15T12:19:01;0.10;;;0.10;;
20842;SDS011;26719;51.440;-2.574;2023-02-15T12:23:58;0.10;;;0.10;;
20842;SDS011;26719;51.440;-2.574;2023-02-15T12:26:33;0.00;;;0.00;;
20842;SDS011;26719;51.440;-2.574;2023-02-15T12:29:15;0.10;;;0.10;;
20842;SDS011;26719;51.440;-2.574;2023-02-15T12:31:43;0.10;;;0.10;;
20842;SDS011;26719;51.440;-2.574;2023-02-15T12:34:17;0.10;;;0.10;;
20842;SDS011;26719;51.440;-2.574;2023-02-15T12:36:46;0.10;;;0.10;;
20842;SDS011;26719;51.440;-2.574;2023-02-15T12:41:48;0.10;;;0.10;;
20842;SDS011;26719;51.440;-2.574;2023-02-15T12:49:27;0.10;;;0.10;;
20842;SDS011;26719;51.440;-2.574;2023-02-15T12:51:54;0.10;;;0.10;;
20842;SDS011;26719;51.440;-2.574;2023-02-15T12:56:50;0.00;;;0.00;;
20842;SDS011;26719;51.440;-2.574;2023-02-15T12:59:16;0.00;;;0.00;;
20842;SDS011;26719;51.440;-2.574;2023-02-15T13:01:48;0.10;;;0.10;;
20842;SDS011;26719;51.440;-2.574;2023-02-15T13:06:46;0.10;;;0.10;;
20842;SDS011;26719;51.440;-2.574;2023-02-15T13:09:17;0.00;;;0.00;;
20842;SDS011;26719;51.440;-2.574;2023-02-15T13:11:45;0.10;;;0.10;;
20842;SDS011;26719;51.440;-2.574;2023-02-15T13:16:57;0.10;;;0.10;;
20842;SDS011;26719;51.440;-2.574;2023-02-15T13:19:34;0.10;;;0.10;;
20842;SDS011;26719;51.440;-2.574;2023-02-15T13:22:13;0.03;;;0.03;;
20842;SDS011;26719;51.440;-2.574;2023-02-15T13:24:41;0.00;;;0.00;;
20842;SDS011;26719;51.440;-2.574;2023-02-15T13:27:09;0.00;;;0.00;;
20842;SDS011;26719;51.440;-2.574;2023-02-15T13:29:38;0.10;;;0.10;;
20842;SDS011;26719;51.440;-2.574;2023-02-15T13:32:10;0.10;;;0.10;;
20842;SDS011;26719;51.440;-2.574;2023-02-15T13:34:38;0.10;;;0.10;;
20842;SDS011;26719;51.440;-2.574;2023-02-15T13:39:38;0.10;;;0.10;;
20842;SDS011;26719;51.440;-2.574;2023-02-15T13:52:56;0.00;;;0.00;;
20842;SDS011;26719;51.440;-2.574;2023-02-15T13:55:28;0.00;;;0.00;;
20842;SDS011;26719;51.440;-2.574;2023-02-15T14:01:11;0.10;;;0.10;;
20842;SDS011;26719;51.440;-2.574;2023-02-15T14:18:44;0.00;;;0.00;;
20842;SDS011;26719;51.440;-2.574;2023-02-15T14:21:56;0.10;;;0.10;;
20842;SDS011;26719;51.440;-2.574;2023-02-15T14:32:11;0.00;;;0.00;;
20842;SDS011;26719;51.440;-2.574;2023-02-15T14:34:46;0.00;;;0.00;;
20842;SDS011;26719;51.440;-2.574;2023-02-15T14:37:12;0.00;;;0.00;;
20842;SDS011;26719;51.440;-2.574;2023-02-15T14:42:39;0.00;;;0.00;;
20842;SDS011;26719;51.440;-2.574;2023-02-15T14:45:21;0.10;;;0.10;;
20842;SDS011;26719;51.440;-2.574;2023-02-15T14:47:51;0.10;;;0.10;;
20842;SDS011;26719;51.440;-2.574;2023-02-15T14:53:36;0.00;;;0.00;;
20842;SDS011;26719;51.440;-2.574;2023-02-15T14:55:43;0.10;;;0.10;;
20842;SDS011;26719;51.440;-2.574;2023-02-15T14:58:12;0.10;;;0.10;;
20842;SDS011;26719;51.440;-2.574;2023-02-15T15:00:39;0.10;;;0.10;;
20842;SDS011;26719;51.440;-2.574;2023-02-15T15:03:10;0.00;;;0.00;;
20842;SDS011;26719;51.440;-2.574;2023-02-15T15:05:46;0.03;;;0.03;;
20842;SDS011;26719;51.440;-2.574;2023-02-15T15:08:26;0.00;;;0.00;;
20842;SDS011;26719;51.440;-2.574;2023-02-15T15:10:53;0.10;;;0.10;;
20842;SDS011;26719;51.440;-2.574;2023-02-15T15:15:56;0.10;;;0.10;;
20842;SDS011;26719;51.440;-2.574;2023-02-15T15:24:02;0.10;;;0.10;;
20842;SDS011;26719;51.440;-2.574;2023-02-15T15:26:30;0.10;;;0.10;;
20842;SDS011;26719;51.440;-2.574;2023-02-15T15:29:01;0.17;;;0.17;;
20842;SDS011;26719;51.440;-2.574;2023-02-15T15:34:14;0.10;;;0.10;;
20842;SDS011;26719;51.440;-2.574;2023-02-15T15:49:47;0.10;;;0.10;;
20842;SDS011;26719;51.440;-2.574;2023-02-15T15:52:14;0.10;;;0.10;;
20842;SDS011;26719;51.440;-2.574;2023-02-15T15:54:41;0.10;;;0.10;;
20842;SDS011;26719;51.440;-2.574;2023-02-15T15:57:12;0.10;;;0.10;;
20842;SDS011;26719;51.440;-2.574;2023-02-15T15:59:43;0.20;;;0.20;;
20842;SDS011;26719;51.440;-2.574;2023-02-15T16:02:11;0.10;;;0.10;;
20842;SDS011;26719;51.440;-2.574;2023-02-15T16:04:41;0.20;;;0.20;;
20842;SDS011;26719;51.440;-2.574;2023-02-15T16:12:27;0.10;;;0.10;;
20842;SDS011;26719;51.440;-2.574;2023-02-15T16:14:54;0.10;;;0.10;;
20842;SDS011;26719;51.440;-2.574;2023-02-15T16:17:25;0.10;;;0.10;;
20842;SDS011;26719;51.440;-2.574;2023-02-15T16:19:53;0.10;;;0.10;;
20842;SDS011;26719;51.440;-2.574;2023-02-15T16:22:23;0.10;;;0.10;;
20842;SDS011;26719;51.440;-2.574;2023-02-15T16:29:57;0.10;;;0.10;;
20842;SDS011;26719;51.440;-2.574;2023-02-15T16:32:24;0.10;;;0.10;;
20842;SDS011;26719;51.440;-2.574;2023-02-15T16:37:21;0.10;;;0.10;;
20842;SDS011;26719;51.440;-2.574;2023-02-15T16:39:48;0.10;;;0.10;;
20842;SDS011;26719;51.440;-2.574;2023-02-15T16:42:15;0.10;;;0.10;;
20842;SDS011;26719;51.440;-2.574;2023-02-15T16:44:42;0.10;;;0.10;;
20842;SDS011;26719;51.440;-2.574;2023-02-15T16:47:12;0.20;;;0.20;;
20842;SDS011;26719;51.440;-2.574;2023-02-15T16:49:40;0.10;;;0.10;;
20842;SDS011;26719;51.440;-2.574;2023-02-15T16:52:10;0.10;;;0.10;;
20842;SDS011;26719;51.440;-2.574;2023-02-15T16:54:40;0.10;;;0.10;;
20842;SDS011;26719;51.440;-2.574;2023-02-15T16:57:15;0.10;;;0.10;;
20842;SDS011;26719;51.440;-2.574;2023-02-15T16:59:42;0.20;;;0.20;;
20842;SDS011;26719;51.440;-2.574;2023-02-15T17:02:12;0.10;;;0.10;;
20842;SDS011;26719;51.440;-2.574;2023-02-15T17:04:40;0.10;;;0.10;;
20842;SDS011;26719;51.440;-2.574;2023-02-15T17:07:17;0.10;;;0.10;;
20842;SDS011;26719;51.440;-2.574;2023-02-15T17:09:54;0.10;;;0.10;;
20842;SDS011;26719;51.440;-2.574;2023-02-15T17:15:13;0.10;;;0.10;;
20842;SDS011;26719;51.440;-2.574;2023-02-15T17:17:49;0.10;;;0.10;;
20842;SDS011;26719;51.440;-2.574;2023-02-15T17:20:16;0.03;;;0.03;;
20842;SDS011;26719;51.440;-2.574;2023-02-15T17:22:43;0.00;;;0.00;;
20842;SDS011;26719;51.440;-2.574;2023-02-15T17:25:14;0.10;;;0.10;;
20842;SDS011;26719;51.440;-2.574;2023-02-15T17:27:44;0.10;;;0.10;;
20842;SDS011;26719;51.440;-2.574;2023-02-15T17:30:17;0.10;;;0.10;;
20842;SDS011;26719;51.440;-2.574;2023-02-15T17:32:53;0.10;;;0.10;;
20842;SDS011;26719;51.440;-2.574;2023-02-15T17:35:25;0.10;;;0.10;;
20842;SDS011;26719;51.440;-2.574;2023-02-15T17:40:36;0.20;;;0.20;;
20842;SDS011;26719;51.440;-2.574;2023-02-15T17:43:02;0.10;;;0.10;;
20842;SDS011;26719;51.440;-2.574;2023-02-15T17:45:35;0.10;;;0.10;;
20842;SDS011;26719;51.440;-2.574;2023-02-15T17:48:03;0.20;;;0.20;;
20842;SDS011;26719;51.440;-2.574;2023-02-15T17:50:29;0.10;;;0.10;;
20842;SDS011;26719;51.440;-2.574;2023-02-15T17:52:56;0.20;;;0.20;;
20842;SDS011;26719;51.440;-2.574;2023-02-15T17:55:23;0.10;;;0.10;;
20842;SDS011;26719;51.440;-2.574;2023-02-15T17:58:06;0.10;;;0.10;;
20842;SDS011;26719;51.440;-2.574;2023-02-15T18:00:34;0.10;;;0.10;;
20842;SDS011;26719;51.440;-2.574;2023-02-15T18:03:19;0.10;;;0.10;;
20842;SDS011;26719;51.440;-2.574;2023-02-15T18:06:03;0.17;;;0.17;;
20842;SDS011;26719;51.440;-2.574;2023-02-15T18:08:48;0.13;;;0.13;;
20842;SDS011;26719;51.440;-2.574;2023-02-15T18:11:33;0.20;;;0.20;;
20842;SDS011;26719;51.440;-2.574;2023-02-15T18:14:11;0.20;;;0.20;;
20842;SDS011;26719;51.440;-2.574;2023-02-15T18:16:41;0.10;;;0.10;;